createdAt,value
2022-11-05T00:00:09.347Z,76.94
2022-11-05T00:02:55.088Z,77.25
2022-11-05T00:05:41.353Z,77.20
2022-11-05T00:08:27.228Z,77.34
2022-11-05T00:10:55.610Z,76.76
2022-11-05T00:13:42.951Z,77.42
2022-11-05T00:16:28.710Z,77.30
2022-11-05T00:19:07.548Z,77.71
2022-11-05T00:21:54.972Z,77.44
2022-11-05T00:24:41.045Z,77.26
2022-11-05T00:27:09.992Z,77.59
2022-11-05T00:29:39.796Z,77.18
2022-11-05T00:32:08.242Z,77.17
2022-11-05T00:34:36.626Z,77.11
2022-11-05T00:37:05.087Z,76.97
2022-11-05T00:39:33.514Z,77.17
2022-11-05T00:42:19.557Z,76.65
2022-11-05T00:45:04.569Z,76.92
2022-11-05T00:47:52.225Z,76.69
2022-11-05T00:50:22.713Z,76.16
2022-11-05T00:52:58.153Z,76.80
2022-11-05T00:55:29.517Z,77.37
2022-11-05T00:57:58.614Z,77.15
2022-11-05T01:00:29.855Z,77.32
2022-11-05T01:03:02.583Z,77.50
2022-11-05T01:05:31.907Z,78.00
2022-11-05T01:08:00.373Z,77.42
2022-11-05T01:10:29.085Z,77.78
2022-11-05T01:12:59.238Z,77.45
2022-11-05T01:15:29.077Z,77.55
2022-11-05T01:17:57.427Z,78.09
2022-11-05T01:20:25.771Z,77.97
2022-11-05T01:22:54.095Z,77.71
2022-11-05T01:25:22.482Z,77.86
2022-11-05T01:27:50.804Z,78.66
2022-11-05T01:30:19.370Z,78.45
2022-11-05T01:32:49.262Z,78.56
2022-11-05T01:35:19.066Z,78.01
2022-11-05T01:37:47.778Z,77.48
2022-11-05T01:40:19.018Z,77.15
2022-11-05T01:42:47.581Z,76.88
2022-11-05T01:45:18.637Z,77.18
2022-11-05T01:48:01.383Z,77.65
2022-11-05T01:50:39.124Z,77.62
2022-11-05T01:53:11.961Z,77.20
2022-11-05T01:55:43.790Z,77.16
2022-11-05T01:58:14.791Z,77.38
2022-11-05T02:00:43.762Z,76.88
2022-11-05T02:03:14.492Z,77.20
2022-11-05T02:05:43.136Z,77.40
2022-11-05T02:08:17.260Z,78.12
2022-11-05T02:10:46.853Z,77.60
2022-11-05T02:13:15.338Z,77.96
2022-11-05T02:15:55.229Z,77.87
2022-11-05T02:18:31.323Z,77.37
2022-11-05T02:21:15.160Z,77.25
2022-11-05T02:24:15.513Z,77.56
2022-11-05T02:27:09.315Z,77.59
2022-11-05T02:30:06.709Z,77.89
2022-11-05T02:32:59.261Z,77.92
2022-11-05T02:35:47.529Z,77.74
2022-11-05T02:38:21.861Z,77.76
2022-11-05T02:40:55.090Z,77.28
2022-11-05T02:43:29.415Z,78.07
2022-11-05T02:46:02.427Z,77.83
2022-11-05T02:48:38.604Z,77.97
2022-11-05T02:51:12.548Z,77.75
2022-11-05T02:53:47.124Z,78.94
2022-11-05T02:56:18.639Z,78.74
2022-11-05T02:58:46.990Z,78.85
2022-11-05T03:01:15.609Z,78.41
2022-11-05T03:03:47.535Z,78.41
2022-11-05T03:06:39.297Z,78.60
2022-11-05T03:09:27.029Z,78.56
2022-11-05T03:12:02.695Z,79.24
2022-11-05T03:14:39.704Z,79.75
2022-11-05T03:17:14.135Z,79.72
2022-11-05T03:19:50.213Z,79.93
2022-11-05T03:22:22.220Z,80.12
2022-11-05T03:24:54.318Z,80.25
2022-11-05T03:27:28.048Z,80.42
2022-11-05T03:30:00.747Z,79.84
2022-11-05T03:32:31.958Z,80.34
2022-11-05T03:35:03.652Z,80.11
2022-11-05T03:37:35.428Z,79.79
2022-11-05T03:40:05.431Z,79.88
2022-11-05T03:42:36.589Z,80.08
2022-11-05T03:45:10.356Z,80.27
2022-11-05T03:47:40.782Z,80.31
2022-11-05T03:50:16.785Z,80.28
2022-11-05T03:52:47.555Z,80.04
2022-11-05T03:55:16.234Z,80.57
2022-11-05T03:57:47.631Z,80.49
2022-11-05T04:00:18.507Z,80.65
2022-11-05T04:02:47.002Z,80.24
2022-11-05T04:05:16.943Z,80.44
2022-11-05T04:08:03.947Z,80.51
2022-11-05T04:11:01.319Z,80.09
2022-11-05T04:13:30.045Z,80.17
2022-11-05T04:16:15.963Z,79.74
2022-11-05T04:18:44.490Z,79.81
2022-11-05T04:21:31.777Z,79.97
2022-11-05T04:24:12.958Z,80.12
2022-11-05T04:26:43.840Z,80.46
2022-11-05T04:29:29.723Z,79.88
2022-11-05T04:31:58.260Z,79.68
2022-11-05T04:34:26.600Z,80.56
2022-11-05T04:36:56.298Z,80.68
2022-11-05T04:39:24.624Z,80.26
2022-11-05T04:41:52.951Z,80.38
2022-11-05T04:44:21.294Z,80.90
2022-11-05T04:46:49.663Z,81.39
2022-11-05T04:49:18.003Z,81.28
2022-11-05T04:51:46.385Z,81.36
2022-11-05T04:54:16.171Z,80.81
2022-11-05T04:56:44.539Z,80.55
2022-11-05T04:59:12.902Z,80.73
2022-11-05T05:01:41.308Z,80.76
2022-11-05T05:04:09.698Z,80.13
2022-11-05T05:06:38.595Z,80.40
2022-11-05T05:09:07.165Z,80.62
2022-11-05T05:11:36.939Z,80.29
2022-11-05T05:14:05.264Z,81.15
2022-11-05T05:16:33.629Z,81.31
2022-11-05T05:19:01.890Z,80.65
2022-11-05T05:21:41.792Z,80.67
2022-11-05T05:24:12.152Z,80.53
2022-11-05T05:26:43.339Z,80.27
2022-11-05T05:29:12.934Z,80.21
2022-11-05T05:31:41.417Z,79.98
2022-11-05T05:34:12.316Z,77.97
2022-11-05T05:36:40.738Z,78.03
2022-11-05T05:39:11.056Z,78.11
2022-11-05T05:41:39.507Z,78.69
2022-11-05T05:44:09.342Z,79.03
2022-11-05T05:46:37.773Z,78.30
2022-11-05T05:49:11.192Z,78.32
2022-11-05T05:51:41.090Z,78.35
2022-11-05T05:54:09.536Z,77.96
2022-11-05T05:56:37.927Z,77.23
2022-11-05T05:59:08.622Z,77.39
2022-11-05T06:01:37.168Z,77.26
2022-11-05T06:04:06.044Z,77.19
2022-11-05T06:06:34.591Z,77.35
2022-11-05T06:09:02.990Z,77.36
2022-11-05T06:11:31.358Z,77.13
2022-11-05T06:13:59.734Z,77.01
2022-11-05T06:16:29.770Z,76.53
2022-11-05T06:18:58.111Z,76.76
2022-11-05T06:21:26.492Z,76.60
2022-11-05T06:23:54.867Z,77.24
2022-11-05T06:26:23.189Z,76.85
2022-11-05T06:28:51.477Z,77.30
2022-11-05T06:31:19.811Z,76.59
2022-11-05T06:33:49.555Z,76.34
2022-11-05T06:36:19.681Z,76.19
2022-11-05T06:38:48.114Z,76.48
2022-11-05T06:41:16.450Z,76.10
2022-11-05T06:43:45.394Z,76.59
2022-11-05T06:46:13.765Z,77.35
2022-11-05T06:48:42.192Z,77.09
2022-11-05T06:51:15.577Z,77.49
2022-11-05T06:53:43.909Z,77.59
2022-11-05T06:56:12.300Z,77.31
2022-11-05T06:58:40.641Z,77.39
2022-11-05T07:01:10.805Z,77.42
2022-11-05T07:03:39.777Z,76.80
2022-11-05T07:06:09.149Z,77.27
2022-11-05T07:08:39.476Z,77.45
2022-11-05T07:11:07.894Z,77.72
2022-11-05T07:13:36.237Z,77.86
2022-11-05T07:16:04.734Z,77.91
2022-11-05T07:18:33.089Z,77.58
2022-11-05T07:21:01.574Z,77.77
2022-11-05T07:23:30.011Z,77.05
2022-11-05T07:26:00.877Z,77.30
2022-11-05T07:28:29.263Z,77.06
2022-11-05T07:30:59.717Z,76.86
2022-11-05T07:33:32.326Z,76.63
2022-11-05T07:36:03.622Z,76.93
2022-11-05T07:38:31.955Z,76.52
2022-11-05T07:41:01.938Z,76.63
2022-11-05T07:43:30.269Z,76.08
2022-11-05T07:45:58.626Z,76.49
2022-11-05T07:48:26.941Z,76.87
2022-11-05T07:50:55.254Z,76.42
2022-11-05T07:53:23.585Z,76.96
2022-11-05T07:55:52.709Z,77.16
2022-11-05T07:58:22.485Z,76.64
2022-11-05T08:00:50.921Z,76.40
2022-11-05T08:03:20.449Z,76.26
2022-11-05T08:05:49.864Z,75.98
2022-11-05T08:08:19.917Z,75.94
2022-11-05T08:10:48.595Z,75.89
2022-11-05T08:13:17.003Z,75.43
2022-11-05T08:15:46.746Z,75.21
2022-11-05T08:18:16.943Z,75.42
2022-11-05T08:20:46.412Z,75.61
2022-11-05T08:23:15.569Z,76.00
2022-11-05T08:25:44.179Z,75.76
2022-11-05T08:28:13.815Z,76.08
2022-11-05T08:30:42.574Z,75.79
2022-11-05T08:33:14.108Z,75.68
2022-11-05T08:35:42.992Z,75.62
2022-11-05T08:38:13.839Z,75.12
2022-11-05T08:40:42.895Z,74.98
2022-11-05T08:43:13.466Z,75.30
2022-11-05T08:45:42.815Z,75.08
2022-11-05T08:48:15.149Z,75.11
2022-11-05T08:50:44.210Z,75.28
2022-11-05T08:53:13.942Z,74.95
2022-11-05T08:55:42.782Z,75.18
2022-11-05T08:58:15.202Z,75.86
2022-11-05T09:00:44.288Z,76.03
2022-11-05T09:03:14.909Z,75.87
2022-11-05T09:05:43.735Z,75.87
2022-11-05T09:08:13.939Z,76.54
2022-11-05T09:10:43.145Z,76.02
2022-11-05T09:13:17.806Z,75.23
2022-11-05T09:15:47.674Z,74.94
2022-11-05T09:18:17.943Z,74.94
2022-11-05T09:20:46.591Z,74.70
2022-11-05T09:23:15.959Z,75.10
2022-11-05T09:25:44.504Z,74.85
2022-11-05T09:28:17.595Z,74.88
2022-11-05T09:30:47.484Z,75.20
2022-11-05T09:33:18.501Z,74.75
2022-11-05T09:35:47.294Z,74.65
2022-11-05T09:38:15.732Z,74.71
2022-11-05T09:40:49.643Z,75.70
2022-11-05T09:43:20.319Z,75.18
2022-11-05T09:45:50.003Z,75.29
2022-11-05T09:48:22.491Z,75.25
2022-11-05T09:50:52.529Z,75.34
2022-11-05T09:53:25.791Z,75.27
2022-11-05T09:55:57.090Z,75.47
2022-11-05T09:58:33.706Z,75.04
2022-11-05T10:01:02.517Z,74.91
2022-11-05T10:03:32.665Z,75.13
2022-11-05T10:06:10.215Z,74.21
2022-11-05T10:08:41.808Z,74.56
2022-11-05T10:11:12.945Z,74.67
2022-11-05T10:13:44.620Z,74.51
2022-11-05T10:16:21.924Z,74.62
2022-11-05T10:18:55.012Z,74.57
2022-11-05T10:21:44.214Z,74.71
2022-11-05T10:24:15.814Z,74.04
2022-11-05T10:26:46.231Z,73.67
2022-11-05T10:29:17.605Z,73.76
2022-11-05T10:31:46.120Z,73.82
2022-11-05T10:34:19.115Z,73.78
2022-11-05T10:36:47.441Z,73.38
2022-11-05T10:39:18.096Z,73.58
2022-11-05T10:41:57.903Z,73.67
2022-11-05T10:44:32.678Z,73.49
2022-11-05T10:47:06.357Z,73.50
2022-11-05T10:49:44.771Z,73.72
2022-11-05T10:52:21.865Z,73.88
2022-11-05T10:54:51.422Z,73.85
2022-11-05T10:57:31.799Z,73.46
2022-11-05T11:00:21.945Z,74.15
2022-11-05T11:02:52.558Z,74.15
2022-11-05T11:05:24.442Z,74.14
2022-11-05T11:08:02.789Z,74.29
2022-11-05T11:10:32.995Z,74.29
2022-11-05T11:13:01.648Z,74.91
2022-11-05T11:15:32.717Z,75.38
2022-11-05T11:18:25.455Z,75.69
2022-11-05T11:20:55.369Z,75.82
2022-11-05T11:23:23.720Z,76.63
2022-11-05T11:25:53.549Z,76.91
2022-11-05T11:28:24.608Z,76.63
2022-11-05T11:31:04.605Z,76.96
2022-11-05T11:33:33.886Z,76.75
2022-11-05T11:36:04.064Z,75.97
2022-11-05T11:38:34.699Z,75.75
2022-11-05T11:41:09.985Z,75.65
2022-11-05T11:43:40.120Z,75.90
2022-11-05T11:46:15.963Z,76.81
2022-11-05T11:48:47.617Z,76.93
2022-11-05T11:51:31.621Z,76.24
2022-11-05T11:54:00.891Z,76.72
2022-11-05T11:56:30.474Z,77.53
2022-11-05T11:59:14.452Z,77.48
2022-11-05T12:02:42.719Z,76.77
2022-11-05T12:05:29.568Z,77.58
2022-11-05T12:08:07.526Z,77.21
2022-11-05T12:10:51.663Z,77.44
2022-11-05T12:13:44.154Z,77.67
2022-11-05T12:16:20.783Z,77.36
2022-11-05T12:18:56.100Z,77.42
2022-11-05T12:21:51.594Z,77.29
2022-11-05T12:24:46.719Z,77.61
2022-11-05T12:27:24.834Z,77.84
2022-11-05T12:29:59.542Z,77.56
2022-11-05T12:32:50.788Z,78.74
2022-11-05T12:35:44.190Z,78.82
2022-11-05T12:38:23.383Z,78.66
2022-11-05T12:41:03.322Z,78.28
2022-11-05T12:43:40.681Z,78.64
2022-11-05T12:46:20.434Z,79.01
2022-11-05T12:49:02.337Z,78.78
2022-11-05T12:51:45.389Z,79.13
2022-11-05T12:54:24.000Z,78.81
2022-11-05T12:56:55.628Z,78.68
2022-11-05T12:59:28.915Z,78.01
2022-11-05T13:02:03.634Z,78.70
2022-11-05T13:04:34.465Z,78.67
2022-11-05T13:07:06.674Z,79.11
2022-11-05T13:09:38.012Z,79.25
2022-11-05T13:12:10.740Z,78.98
2022-11-05T13:14:45.642Z,78.71
2022-11-05T13:17:17.106Z,78.03
2022-11-05T13:19:51.240Z,78.51
2022-11-05T13:22:29.331Z,78.58
2022-11-05T13:24:59.978Z,78.69
2022-11-05T13:27:44.996Z,79.08
2022-11-05T13:30:17.237Z,79.03
2022-11-05T13:32:48.681Z,78.52
2022-11-05T13:35:19.518Z,78.70
2022-11-05T13:38:10.931Z,78.36
2022-11-05T13:40:47.180Z,78.05
2022-11-05T13:43:42.660Z,78.26
2022-11-05T13:46:30.242Z,78.37
2022-11-05T13:49:50.026Z,78.26
2022-11-05T13:52:35.845Z,78.19
2022-11-05T13:55:40.570Z,78.54
2022-11-05T13:58:38.070Z,78.77
2022-11-05T14:01:11.954Z,78.55
2022-11-05T14:03:41.238Z,78.83
2022-11-05T14:06:11.255Z,78.60
2022-11-05T14:08:41.794Z,78.52
2022-11-05T14:11:22.037Z,77.96
2022-11-05T14:13:55.335Z,78.52
2022-11-05T14:16:25.530Z,78.64
2022-11-05T14:19:30.678Z,79.04
2022-11-05T14:21:59.897Z,78.89
2022-11-05T14:24:30.611Z,78.64
2022-11-05T14:27:43.713Z,78.43
2022-11-05T14:30:42.398Z,78.31
2022-11-05T14:33:31.548Z,78.15
2022-11-05T14:36:38.898Z,78.14
2022-11-05T14:39:23.159Z,78.40
2022-11-05T14:41:59.536Z,78.65
2022-11-05T14:44:28.644Z,78.87
2022-11-05T14:47:01.603Z,78.87
2022-11-05T14:49:31.776Z,79.04
2022-11-05T14:52:01.363Z,78.77
2022-11-05T14:54:37.078Z,78.71
2022-11-05T14:57:05.502Z,78.94
2022-11-05T14:59:54.122Z,78.79
2022-11-05T15:02:27.520Z,79.12
2022-11-05T15:05:29.193Z,78.73
2022-11-05T15:07:58.560Z,79.66
2022-11-05T15:10:28.838Z,79.65
2022-11-05T15:13:04.171Z,79.22
2022-11-05T15:15:41.905Z,79.06
2022-11-05T15:18:18.590Z,78.95
2022-11-05T15:20:48.457Z,79.66
2022-11-05T15:23:19.756Z,80.19
2022-11-05T15:25:53.515Z,79.36
2022-11-05T15:28:28.646Z,78.84
2022-11-05T15:31:02.220Z,78.79
2022-11-05T15:33:32.638Z,78.72
2022-11-05T15:36:10.923Z,78.62
2022-11-05T15:38:39.300Z,78.50
2022-11-05T15:41:15.921Z,78.28
2022-11-05T15:43:47.861Z,78.58
2022-11-05T15:46:17.867Z,78.28
2022-11-05T15:48:52.939Z,78.56
2022-11-05T15:51:22.773Z,78.00
2022-11-05T15:56:50.406Z,78.20
2022-11-05T15:59:21.417Z,78.58
2022-11-05T16:01:52.745Z,78.23
2022-11-05T16:04:24.164Z,78.53
2022-11-05T16:06:54.956Z,78.90
2022-11-05T16:09:25.461Z,78.52
2022-11-05T16:12:21.456Z,78.82
2022-11-05T16:14:58.882Z,78.95
2022-11-05T16:17:28.724Z,79.80
2022-11-05T16:19:58.947Z,79.42
2022-11-05T16:22:27.551Z,79.68
2022-11-05T16:24:55.917Z,79.61
2022-11-05T16:27:24.257Z,79.11
2022-11-05T16:29:54.122Z,79.69
2022-11-05T16:32:30.209Z,79.75
2022-11-05T16:35:02.281Z,79.59
2022-11-05T16:37:46.386Z,79.37
2022-11-05T16:40:18.267Z,79.23
2022-11-05T16:42:48.660Z,79.41
2022-11-05T16:45:18.716Z,78.89
2022-11-05T16:47:47.393Z,79.20
2022-11-05T16:50:21.041Z,79.24
2022-11-05T16:52:49.850Z,78.83
2022-11-05T16:55:18.889Z,78.63
2022-11-05T16:57:49.487Z,78.54
2022-11-05T17:00:20.095Z,79.18
2022-11-05T17:02:49.039Z,79.22
2022-11-05T17:05:22.016Z,79.13
2022-11-05T17:07:50.455Z,78.86
2022-11-05T17:10:19.275Z,78.66
2022-11-05T17:12:48.319Z,78.82
2022-11-05T17:15:19.228Z,78.84
2022-11-05T17:17:48.092Z,79.13
2022-11-05T17:20:34.998Z,79.05
2022-11-05T17:23:07.300Z,79.34
2022-11-05T17:25:35.992Z,79.51
2022-11-05T17:28:05.070Z,79.61
2022-11-05T17:30:33.715Z,79.62
2022-11-05T17:33:02.238Z,79.00
2022-11-05T17:35:32.327Z,79.38
2022-11-05T17:38:00.746Z,79.42
2022-11-05T17:40:30.493Z,79.63
2022-11-05T17:42:58.849Z,79.13
2022-11-05T17:45:27.191Z,79.57
2022-11-05T17:47:55.644Z,79.51
2022-11-05T17:50:24.112Z,79.10
2022-11-05T17:52:53.979Z,79.49
2022-11-05T17:55:27.581Z,79.15
2022-11-05T17:57:56.113Z,79.61
2022-11-05T18:00:25.562Z,79.42
2022-11-05T18:02:55.172Z,79.92
2022-11-05T18:05:24.284Z,79.72
2022-11-05T18:07:54.179Z,79.77
2022-11-05T18:10:22.837Z,79.46
2022-11-05T18:12:51.655Z,79.59
2022-11-05T18:15:20.128Z,79.74
2022-11-05T18:17:48.595Z,79.79
2022-11-05T18:20:19.432Z,79.96
2022-11-05T18:22:50.130Z,79.41
2022-11-05T18:25:20.141Z,79.81
2022-11-05T18:27:48.540Z,79.89
2022-11-05T18:30:17.011Z,79.81
2022-11-05T18:32:45.754Z,80.03
2022-11-05T18:35:14.708Z,79.64
2022-11-05T18:37:43.536Z,79.69
2022-11-05T18:40:12.989Z,79.66
2022-11-05T18:42:43.240Z,79.81
2022-11-05T18:45:12.547Z,79.34
2022-11-05T18:47:41.185Z,79.46
2022-11-05T18:50:10.674Z,79.62
2022-11-05T18:52:39.041Z,79.45
2022-11-05T18:55:08.983Z,79.47
2022-11-05T18:57:37.332Z,79.41
2022-11-05T19:00:09.615Z,79.58
2022-11-05T19:02:38.305Z,79.59
2022-11-05T19:05:27.872Z,79.89
2022-11-05T19:07:55.838Z,79.57
2022-11-05T19:10:24.287Z,79.54
2022-11-05T19:12:52.622Z,79.14
2022-11-05T19:15:22.575Z,79.48
2022-11-05T19:17:50.937Z,79.13
2022-11-05T19:20:19.974Z,79.45
2022-11-05T19:22:49.095Z,79.30
2022-11-05T19:25:17.558Z,79.08
2022-11-05T19:27:45.938Z,78.49
2022-11-05T19:30:14.436Z,78.82
2022-11-05T19:32:44.296Z,78.94
2022-11-05T19:35:12.681Z,78.93
2022-11-05T19:37:41.104Z,79.19
2022-11-05T19:40:11.368Z,79.38
2022-11-05T19:42:41.723Z,79.87
2022-11-05T19:45:38.395Z,79.46
2022-11-05T19:48:01.178Z,79.33
2022-11-05T19:50:29.609Z,79.14
2022-11-05T19:52:58.171Z,78.53
2022-11-05T19:55:26.789Z,78.43
2022-11-05T19:57:55.187Z,78.37
2022-11-05T20:00:23.694Z,78.71
2022-11-05T20:02:52.392Z,77.97
2022-11-05T20:05:22.286Z,77.63
2022-11-05T20:07:53.111Z,77.52
2022-11-05T20:10:22.154Z,77.75
2022-11-05T20:12:50.755Z,77.52
2022-11-05T20:15:19.918Z,77.26
2022-11-05T20:17:52.137Z,77.37
2022-11-05T20:20:22.242Z,77.82
2022-11-05T20:22:52.927Z,77.94
2022-11-05T20:25:21.339Z,77.96
2022-11-05T20:27:49.792Z,78.51
2022-11-05T20:30:18.768Z,78.89
2022-11-05T20:32:47.226Z,78.81
2022-11-05T20:35:15.707Z,78.48
2022-11-05T20:37:48.498Z,78.11
2022-11-05T20:40:21.169Z,77.23
2022-11-05T20:42:50.325Z,77.38
2022-11-05T20:45:18.933Z,77.61
2022-11-05T20:47:47.385Z,77.34
2022-11-05T20:50:15.806Z,77.21
2022-11-05T20:52:45.698Z,77.97
2022-11-05T20:55:14.062Z,78.09
2022-11-05T20:57:42.589Z,78.34
2022-11-05T21:00:12.266Z,78.32
2022-11-05T21:02:41.945Z,77.93
2022-11-05T21:05:10.862Z,77.79
2022-11-05T21:07:39.288Z,77.08
2022-11-05T21:10:09.490Z,76.92
2022-11-05T21:12:40.662Z,77.07
2022-11-05T21:15:10.638Z,77.53
2022-11-05T21:17:39.136Z,77.46
2022-11-05T21:20:08.514Z,77.34
2022-11-05T21:22:36.814Z,77.09
2022-11-05T21:25:06.020Z,77.43
2022-11-05T21:27:37.175Z,78.18
2022-11-05T21:30:09.845Z,78.31
2022-11-05T21:32:38.774Z,78.29
2022-11-05T21:35:07.713Z,78.17
2022-11-05T21:37:36.235Z,78.11
2022-11-05T21:40:05.383Z,78.21
2022-11-05T21:42:35.731Z,78.25
2022-11-05T21:45:04.644Z,77.31
2022-11-05T21:47:33.247Z,77.83
2022-11-05T21:50:02.052Z,78.46
2022-11-05T21:52:49.126Z,78.47
2022-11-05T21:55:37.312Z,78.75
2022-11-05T21:58:35.830Z,78.51
2022-11-05T22:01:04.740Z,78.87
2022-11-05T22:03:33.616Z,78.93
2022-11-05T22:06:01.981Z,78.69
2022-11-05T22:08:30.805Z,78.64
2022-11-05T22:10:59.496Z,78.52
2022-11-05T22:13:29.933Z,78.98
2022-11-05T22:15:58.811Z,79.53
2022-11-05T22:18:27.827Z,78.91
2022-11-05T22:20:56.736Z,79.00
2022-11-05T22:23:25.743Z,79.39
2022-11-05T22:26:00.827Z,79.19
2022-11-05T22:28:31.652Z,79.52
2022-11-05T22:31:00.675Z,79.54
2022-11-05T22:33:29.477Z,79.26
2022-11-05T22:35:58.578Z,79.34
2022-11-05T22:38:27.651Z,80.04
2022-11-05T22:40:57.168Z,79.76
2022-11-05T22:43:26.148Z,79.67
2022-11-05T22:45:56.769Z,79.63
2022-11-05T22:48:25.795Z,79.73
2022-11-05T22:50:54.624Z,79.19
2022-11-05T22:53:23.406Z,79.13
2022-11-05T22:55:52.224Z,78.61
2022-11-05T22:58:21.127Z,79.20
2022-11-05T23:00:49.849Z,79.34
2022-11-05T23:03:20.103Z,79.94
2022-11-05T23:05:49.037Z,80.06
2022-11-05T23:08:35.288Z,79.99
2022-11-05T23:11:23.581Z,79.65
2022-11-05T23:13:52.551Z,78.76
2022-11-05T23:16:38.761Z,78.91
2022-11-05T23:19:27.793Z,78.53
2022-11-05T23:22:14.077Z,78.00
2022-11-05T23:24:43.019Z,78.18
2022-11-05T23:27:12.280Z,78.12
2022-11-05T23:29:41.316Z,77.74
2022-11-05T23:32:24.443Z,77.92
2022-11-05T23:34:55.745Z,77.85
2022-11-05T23:37:43.125Z,77.93
2022-11-05T23:40:15.133Z,77.14
2022-11-05T23:43:01.825Z,77.43
2022-11-05T23:45:49.143Z,77.24
2022-11-05T23:48:22.294Z,77.13
2022-11-05T23:50:54.270Z,76.74
2022-11-05T23:53:23.221Z,76.71
2022-11-05T23:55:52.504Z,77.62
2022-11-05T23:58:21.429Z,77.68
